Time;durP1;ratioP1;P1;durP2;ratioP2;P2;SDS_P1;SDS_P2;PMS_P1;PMS_P2;Temp;Humidity;BMP_temperature;BMP_pressure;BME280_temperature;BME280_humidity;BME280_pressure;Samples;Min_cycle;Max_cycle;Signal;HPM_P1;HPM_P2
2023/03/02 00:00:41;;;;;;;41.38;22.08;;;;;;;;;;5075413;28;20019;-72
2023/03/02 00:03:27;;;;;;;42.05;21.25;;;;;;;;;;5074642;28;20024;-72
2023/03/02 00:06:13;;;;;;;39.60;21.23;;;;;;;;;;5075279;28;20120;-72
2023/03/02 00:08:59;;;;;;;40.10;21.48;;;;;;;;;;5074808;28;20357;-72
2023/03/02 00:11:45;;;;;;;38.53;20.65;;;;;;;;;;5075528;28;20036;-71
2023/03/02 00:14:30;;;;;;;35.55;20.30;;;;;;;;;;5074701;28;20020;-71
2023/03/02 00:17:16;;;;;;;40.75;21.40;;;;;;;;;;5074206;28;20356;-72
2023/03/02 00:20:11;;;;;;;35.60;20.33;;;;;;;;;;5074213;28;20020;-72
2023/03/02 00:22:56;;;;;;;38.83;20.27;;;;;;;;;;5074965;28;20025;-72
2023/03/02 00:25:42;;;;;;;34.05;18.80;;;;;;;;;;5072896;28;20051;-71
2023/03/02 00:28:28;;;;;;;35.13;19.20;;;;;;;;;;5074128;28;20048;-72
2023/03/02 00:31:14;;;;;;;35.95;19.35;;;;;;;;;;5074262;28;20027;-71
2023/03/02 00:34:00;;;;;;;35.90;19.35;;;;;;;;;;5073715;28;20136;-72
2023/03/02 00:36:48;;;;;;;34.22;19.30;;;;;;;;;;5073236;28;20499;-71
2023/03/02 00:39:33;;;;;;;35.13;19.40;;;;;;;;;;5073586;28;20036;-72
2023/03/02 00:42:19;;;;;;;35.28;19.05;;;;;;;;;;5073656;28;20020;-72
2023/03/02 00:45:05;;;;;;;36.55;19.92;;;;;;;;;;5073621;28;20044;-71
2023/03/02 00:47:51;;;;;;;35.67;20.05;;;;;;;;;;5073558;28;20469;-71
2023/03/02 00:50:39;;;;;;;35.28;20.10;;;;;;;;;;5075105;28;20035;-70
2023/03/02 00:53:25;;;;;;;33.08;18.90;;;;;;;;;;5076015;28;20021;-71
2023/03/02 00:56:11;;;;;;;35.75;19.42;;;;;;;;;;5076461;28;20016;-71
2023/03/02 00:58:56;;;;;;;40.83;21.35;;;;;;;;;;5075527;28;20036;-71
2023/03/02 01:01:42;;;;;;;33.22;19.48;;;;;;;;;;5073436;28;20024;-72
2023/03/02 01:04:30;;;;;;;33.42;19.92;;;;;;;;;;5073583;28;20093;-71
2023/03/02 01:07:16;;;;;;;40.90;21.92;;;;;;;;;;5073189;28;20392;-71
2023/03/02 01:10:02;;;;;;;35.42;21.33;;;;;;;;;;5073254;28;20070;-73
2023/03/02 01:12:48;;;;;;;40.20;22.65;;;;;;;;;;5073686;28;20048;-70
2023/03/02 01:15:33;;;;;;;41.90;22.98;;;;;;;;;;5071883;28;20012;-72
2023/03/02 01:18:19;;;;;;;45.45;24.05;;;;;;;;;;5072945;28;20048;-70
2023/03/02 01:21:06;;;;;;;42.75;23.45;;;;;;;;;;5073012;28;20445;-71
2023/03/02 01:23:52;;;;;;;46.40;23.58;;;;;;;;;;5072677;28;20063;-72
2023/03/02 01:26:37;;;;;;;41.22;23.13;;;;;;;;;;5073137;28;20418;-72
2023/03/02 01:29:23;;;;;;;44.75;23.75;;;;;;;;;;5073429;28;20099;-72
2023/03/02 01:32:09;;;;;;;43.30;23.08;;;;;;;;;;5072659;28;20436;-72
2023/03/02 01:34:54;;;;;;;43.45;24.27;;;;;;;;;;5073210;28;20035;-72
2023/03/02 01:37:40;;;;;;;42.50;22.75;;;;;;;;;;5072871;28;20099;-72
2023/03/02 01:40:25;;;;;;;40.13;22.92;;;;;;;;;;5072357;28;20030;-72
2023/03/02 01:43:15;;;;;;;45.80;24.48;;;;;;;;;;5072469;28;20035;-71
2023/03/02 01:46:06;;;;;;;42.72;24.05;;;;;;;;;;5073391;28;20445;-72
2023/03/02 01:49:05;;;;;;;42.92;24.20;;;;;;;;;;5072869;28;20460;-72
2023/03/02 01:51:51;;;;;;;41.97;23.27;;;;;;;;;;5072897;28;20016;-73
2023/03/02 01:54:39;;;;;;;45.83;23.42;;;;;;;;;;5072162;28;20024;-71
2023/03/02 01:57:27;;;;;;;39.63;22.65;;;;;;;;;;5073072;28;20020;-71
2023/03/02 02:00:18;;;;;;;41.17;22.45;;;;;;;;;;5073327;28;20035;-72
2023/03/02 02:03:10;;;;;;;42.08;22.10;;;;;;;;;;5073119;28;20047;-71
2023/03/02 02:06:16;;;;;;;40.20;23.15;;;;;;;;;;5073188;28;20024;-72
2023/03/02 02:09:03;;;;;;;44.20;22.60;;;;;;;;;;5072170;28;20365;-71
2023/03/02 02:11:49;;;;;;;44.55;23.40;;;;;;;;;;5073555;28;20027;-72
2023/03/02 02:14:34;;;;;;;50.10;24.33;;;;;;;;;;5072856;28;20052;-72
2023/03/02 02:17:20;;;;;;;43.92;24.10;;;;;;;;;;5072189;28;20024;-71
2023/03/02 02:20:09;;;;;;;47.60;24.10;;;;;;;;;;5075261;28;20205;-71
2023/03/02 02:22:55;;;;;;;50.40;25.80;;;;;;;;;;5073116;28;20025;-72
2023/03/02 02:25:40;;;;;;;46.97;25.33;;;;;;;;;;5071876;28;20031;-71
2023/03/02 02:28:34;;;;;;;51.60;26.17;;;;;;;;;;5071932;28;20024;-72
2023/03/02 02:31:25;;;;;;;55.33;27.10;;;;;;;;;;5071859;28;20028;-72
2023/03/02 02:34:14;;;;;;;54.22;27.65;;;;;;;;;;5072901;28;20125;-72
2023/03/02 02:37:10;;;;;;;52.55;28.10;;;;;;;;;;5073228;28;20035;-72
2023/03/02 02:39:56;;;;;;;53.20;27.60;;;;;;;;;;5072431;28;20419;-72
2023/03/02 02:42:43;;;;;;;53.22;28.27;;;;;;;;;;5071788;28;20020;-72
2023/03/02 02:45:29;;;;;;;55.25;27.95;;;;;;;;;;5073197;28;20086;-72
2023/03/02 02:48:15;;;;;;;54.28;29.00;;;;;;;;;;5072597;28;20028;-73
2023/03/02 02:51:02;;;;;;;51.35;28.60;;;;;;;;;;5072986;28;20086;-71
2023/03/02 02:53:57;;;;;;;55.40;28.20;;;;;;;;;;5076812;28;20039;-71
2023/03/02 02:56:44;;;;;;;51.78;28.85;;;;;;;;;;5074881;28;20407;-72
2023/03/02 02:59:38;;;;;;;53.13;28.92;;;;;;;;;;5076660;28;20103;-71
2023/03/02 03:02:26;;;;;;;56.58;30.50;;;;;;;;;;5076094;28;20449;-72
2023/03/02 03:05:15;;;;;;;59.50;31.02;;;;;;;;;;5075413;28;20453;-72
2023/03/02 03:08:29;;;;;;;58.78;30.83;;;;;;;;;;5075538;28;20028;-73
2023/03/02 03:11:22;;;;;;;62.65;32.05;;;;;;;;;;5075623;28;20027;-72
2023/03/02 03:14:07;;;;;;;63.90;31.42;;;;;;;;;;5075943;28;20415;-72
2023/03/02 03:16:53;;;;;;;64.60;32.88;;;;;;;;;;5075489;28;20036;-72
2023/03/02 03:19:40;;;;;;;62.28;34.20;;;;;;;;;;5075280;28;20024;-72
2023/03/02 03:22:26;;;;;;;63.20;32.88;;;;;;;;;;5075107;28;20111;-72
2023/03/02 03:25:14;;;;;;;62.05;33.20;;;;;;;;;;5076079;28;20423;-72
2023/03/02 03:27:59;;;;;;;63.08;33.28;;;;;;;;;;5075019;28;20017;-72
2023/03/02 03:30:45;;;;;;;65.57;34.83;;;;;;;;;;5074799;28;20024;-72
2023/03/02 03:33:30;;;;;;;64.18;35.80;;;;;;;;;;5075873;28;20048;-71
2023/03/02 03:36:16;;;;;;;63.30;35.45;;;;;;;;;;5074622;28;20573;-72
2023/03/02 03:39:04;;;;;;;64.25;34.75;;;;;;;;;;5076964;28;20056;-71
2023/03/02 03:41:50;;;;;;;68.53;34.45;;;;;;;;;;5075485;28;20021;-72
2023/03/02 03:44:35;;;;;;;67.25;35.58;;;;;;;;;;5075090;28;20353;-72
2023/03/02 03:47:21;;;;;;;62.50;34.70;;;;;;;;;;5075778;28;20016;-72
2023/03/02 03:50:07;;;;;;;62.95;35.42;;;;;;;;;;5074596;28;20017;-72
2023/03/02 03:52:52;;;;;;;64.18;34.53;;;;;;;;;;5074552;28;20365;-72
2023/03/02 03:55:38;;;;;;;62.45;34.83;;;;;;;;;;5074124;28;20035;-72
2023/03/02 03:58:24;;;;;;;64.30;34.47;;;;;;;;;;5074383;28;20032;-73
2023/03/02 04:01:10;;;;;;;71.43;35.45;;;;;;;;;;5074060;28;20486;-72
2023/03/02 04:03:55;;;;;;;69.47;37.45;;;;;;;;;;5074052;28;20032;-72
2023/03/02 04:06:41;;;;;;;73.85;36.22;;;;;;;;;;5075985;28;20020;-72
2023/03/02 04:09:26;;;;;;;70.22;35.60;;;;;;;;;;5075375;28;20036;-73
2023/03/02 04:12:12;;;;;;;66.22;35.08;;;;;;;;;;5075762;28;20016;-73
2023/03/02 04:14:58;;;;;;;62.50;33.47;;;;;;;;;;5075374;28;20059;-73
2023/03/02 04:17:44;;;;;;;60.78;33.42;;;;;;;;;;5074874;28;20034;-72
2023/03/02 04:20:30;;;;;;;58.40;31.83;;;;;;;;;;5075247;28;20036;-72
2023/03/02 04:23:15;;;;;;;58.63;31.80;;;;;;;;;;5075278;28;20033;-72
2023/03/02 04:26:04;;;;;;;56.63;31.90;;;;;;;;;;5075285;28;20060;-72
2023/03/02 04:28:49;;;;;;;61.85;32.70;;;;;;;;;;5074483;28;20024;-72
2023/03/02 04:31:35;;;;;;;54.47;31.13;;;;;;;;;;5075013;28;20013;-72
2023/03/02 04:34:22;;;;;;;59.35;32.13;;;;;;;;;;5074454;28;20445;-73
2023/03/02 04:37:07;;;;;;;63.78;33.92;;;;;;;;;;5072896;28;20476;-72
2023/03/02 04:39:53;;;;;;;58.08;32.20;;;;;;;;;;5074809;28;20409;-71
2023/03/02 04:42:39;;;;;;;61.40;32.05;;;;;;;;;;5073573;28;20356;-72
2023/03/02 04:45:24;;;;;;;62.05;32.70;;;;;;;;;;5075304;28;20107;-70
2023/03/02 04:48:10;;;;;;;60.50;32.53;;;;;;;;;;5074165;28;20013;-71
2023/03/02 04:50:55;;;;;;;63.20;33.70;;;;;;;;;;5073411;28;20013;-72
2023/03/02 04:53:41;;;;;;;57.45;32.25;;;;;;;;;;5074221;28;20027;-72
2023/03/02 04:56:27;;;;;;;64.15;34.22;;;;;;;;;;5073874;28;20066;-72
2023/03/02 04:59:14;;;;;;;58.42;32.60;;;;;;;;;;5073284;28;20100;-72
2023/03/02 05:02:00;;;;;;;62.88;34.33;;;;;;;;;;5074867;28;20048;-73
2023/03/02 05:04:45;;;;;;;61.78;33.70;;;;;;;;;;5078196;28;20111;-71
2023/03/02 05:07:31;;;;;;;58.50;33.05;;;;;;;;;;5075934;28;20024;-72
2023/03/02 05:10:18;;;;;;;59.80;32.58;;;;;;;;;;5081698;28;20020;-72
2023/03/02 05:13:04;;;;;;;60.30;32.50;;;;;;;;;;5075556;28;20481;-71
2023/03/02 05:15:50;;;;;;;58.83;32.78;;;;;;;;;;5074147;28;20029;-70
2023/03/02 05:18:36;;;;;;;62.90;32.83;;;;;;;;;;5074700;28;20047;-70
2023/03/02 05:21:22;;;;;;;58.65;33.30;;;;;;;;;;5073098;28;20097;-69
2023/03/02 05:24:08;;;;;;;65.00;34.05;;;;;;;;;;5073000;28;20090;-70
2023/03/02 05:26:53;;;;;;;59.78;32.40;;;;;;;;;;5073964;28;20028;-71
2023/03/02 05:29:39;;;;;;;62.63;34.13;;;;;;;;;;5073299;28;20031;-71
2023/03/02 05:32:24;;;;;;;65.07;33.28;;;;;;;;;;5072454;28;20475;-71
2023/03/02 05:35:10;;;;;;;63.50;32.65;;;;;;;;;;5074038;28;20024;-70
2023/03/02 05:37:56;;;;;;;59.95;33.47;;;;;;;;;;5073168;28;20105;-70
2023/03/02 05:40:42;;;;;;;61.22;34.75;;;;;;;;;;5073466;28;20116;-71
2023/03/02 05:43:28;;;;;;;59.97;31.90;;;;;;;;;;5073048;28;20360;-71
2023/03/02 05:46:13;;;;;;;58.53;32.25;;;;;;;;;;5073093;28;20021;-71
2023/03/02 05:48:59;;;;;;;59.75;32.20;;;;;;;;;;5073634;28;20024;-71
2023/03/02 05:51:44;;;;;;;64.43;33.08;;;;;;;;;;5073584;28;20052;-70
2023/03/02 05:54:31;;;;;;;63.97;34.40;;;;;;;;;;5073523;28;20016;-71
2023/03/02 05:57:16;;;;;;;61.28;33.28;;;;;;;;;;5073367;28;20031;-70
2023/03/02 06:00:04;;;;;;;61.30;34.03;;;;;;;;;;5072964;28;20347;-71
2023/03/02 06:02:50;;;;;;;60.40;33.58;;;;;;;;;;5073792;28;20028;-71
2023/03/02 06:05:35;;;;;;;63.70;33.33;;;;;;;;;;5072686;28;20036;-72
2023/03/02 06:08:21;;;;;;;68.80;34.70;;;;;;;;;;5073061;28;20039;-71
2023/03/02 06:11:07;;;;;;;68.68;36.33;;;;;;;;;;5072531;28;20103;-71
2023/03/02 06:13:53;;;;;;;63.40;33.13;;;;;;;;;;5072636;28;20119;-71
2023/03/02 06:16:38;;;;;;;62.90;32.95;;;;;;;;;;5073769;28;20021;-70
2023/03/02 06:19:24;;;;;;;63.25;33.25;;;;;;;;;;5073014;28;20047;-71
2023/03/02 06:22:10;;;;;;;67.18;35.72;;;;;;;;;;5072585;28;20040;-71
2023/03/02 06:24:55;;;;;;;64.35;34.80;;;;;;;;;;5073283;28;20021;-71
2023/03/02 06:27:42;;;;;;;68.15;35.30;;;;;;;;;;5075944;28;20025;-71
2023/03/02 06:30:27;;;;;;;68.82;35.83;;;;;;;;;;5077139;28;20494;-70
2023/03/02 06:33:16;;;;;;;67.18;36.15;;;;;;;;;;5077198;28;20055;-72
2023/03/02 06:36:02;;;;;;;70.05;37.30;;;;;;;;;;5077082;28;20111;-71
2023/03/02 06:38:48;;;;;;;70.72;38.20;;;;;;;;;;5076380;28;20028;-71
2023/03/02 06:41:33;;;;;;;66.65;34.47;;;;;;;;;;5076435;28;20048;-71
2023/03/02 06:44:19;;;;;;;67.75;33.42;;;;;;;;;;5077750;28;20055;-71
2023/03/02 06:47:04;;;;;;;62.13;33.90;;;;;;;;;;5076368;28;20032;-71
2023/03/02 06:49:50;;;;;;;63.72;33.72;;;;;;;;;;5077441;28;20441;-71
2023/03/02 06:52:36;;;;;;;70.60;33.63;;;;;;;;;;5076072;28;20039;-72
2023/03/02 06:55:21;;;;;;;68.15;33.35;;;;;;;;;;5075929;28;20099;-73
2023/03/02 06:58:11;;;;;;;63.15;32.38;;;;;;;;;;5076419;28;20035;-71
2023/03/02 07:00:57;;;;;;;74.63;34.92;;;;;;;;;;5075829;28;20020;-71
2023/03/02 07:03:43;;;;;;;71.18;37.45;;;;;;;;;;5076603;28;20035;-72
2023/03/02 07:06:28;;;;;;;70.47;36.95;;;;;;;;;;5076072;28;20070;-71
2023/03/02 07:09:14;;;;;;;63.80;34.65;;;;;;;;;;5075892;28;20088;-71
2023/03/02 07:12:00;;;;;;;65.97;36.05;;;;;;;;;;5076586;28;20028;-72
2023/03/02 07:14:45;;;;;;;64.88;33.83;;;;;;;;;;5075870;28;20104;-70
2023/03/02 07:17:32;;;;;;;63.63;34.15;;;;;;;;;;5075548;28;20039;-70
2023/03/02 07:20:18;;;;;;;60.58;32.85;;;;;;;;;;5076112;28;20121;-71
2023/03/02 07:23:04;;;;;;;57.65;31.60;;;;;;;;;;5075563;28;20023;-71
2023/03/02 07:25:49;;;;;;;64.28;32.88;;;;;;;;;;5075973;28;20153;-72
2023/03/02 07:28:38;;;;;;;63.13;33.00;;;;;;;;;;5074440;28;20027;-71
2023/03/02 07:31:24;;;;;;;63.50;33.72;;;;;;;;;;5076368;28;20138;-72
2023/03/02 07:34:09;;;;;;;65.07;32.47;;;;;;;;;;5075826;28;20471;-72
2023/03/02 07:36:56;;;;;;;67.28;33.88;;;;;;;;;;5076231;28;20037;-72
2023/03/02 07:39:42;;;;;;;65.13;33.13;;;;;;;;;;5088074;28;20096;-71
2023/03/02 07:42:27;;;;;;;65.63;33.30;;;;;;;;;;5077692;28;20031;-71
2023/03/02 07:45:13;;;;;;;65.10;32.75;;;;;;;;;;5077082;28;20024;-72
2023/03/02 07:47:59;;;;;;;59.60;31.45;;;;;;;;;;5075053;28;20056;-71
2023/03/02 07:50:45;;;;;;;63.50;33.00;;;;;;;;;;5075880;28;20078;-71
2023/03/02 07:53:30;;;;;;;64.28;32.80;;;;;;;;;;5076067;28;20042;-72
2023/03/02 07:56:16;;;;;;;64.90;33.70;;;;;;;;;;5075424;28;20020;-70
2023/03/02 07:59:02;;;;;;;66.38;33.80;;;;;;;;;;5075541;28;20028;-71
2023/03/02 08:01:47;;;;;;;66.43;33.08;;;;;;;;;;5076017;28;20045;-71
2023/03/02 08:04:33;;;;;;;69.68;35.08;;;;;;;;;;5075683;28;20521;-71
2023/03/02 08:07:19;;;;;;;64.95;33.45;;;;;;;;;;5076575;28;20020;-71
2023/03/02 08:10:04;;;;;;;69.03;35.08;;;;;;;;;;5074460;28;20027;-71
2023/03/02 08:12:50;;;;;;;67.43;34.22;;;;;;;;;;5075257;28;20058;-70
2023/03/02 08:15:36;;;;;;;64.30;33.42;;;;;;;;;;5075223;28;20098;-72
2023/03/02 08:18:21;;;;;;;65.43;33.10;;;;;;;;;;5075116;28;20035;-71
2023/03/02 08:21:11;;;;;;;66.65;34.28;;;;;;;;;;5074087;28;20070;-71
2023/03/02 08:23:57;;;;;;;68.22;34.03;;;;;;;;;;5074587;28;20055;-71
2023/03/02 08:26:42;;;;;;;62.08;33.33;;;;;;;;;;5074567;28;20024;-70
2023/03/02 08:29:28;;;;;;;66.53;33.70;;;;;;;;;;5075356;28;20445;-70
2023/03/02 08:32:14;;;;;;;68.15;34.13;;;;;;;;;;5074134;28;20048;-71
2023/03/02 08:34:59;;;;;;;63.45;33.47;;;;;;;;;;5074313;28;20013;-70
2023/03/02 08:37:45;;;;;;;66.95;34.72;;;;;;;;;;5074697;28;20032;-74
2023/03/02 08:40:30;;;;;;;72.30;33.63;;;;;;;;;;5074823;28;20040;-71
2023/03/02 08:43:16;;;;;;;68.60;34.67;;;;;;;;;;5073599;28;20115;-70
2023/03/02 08:46:02;;;;;;;69.93;36.35;;;;;;;;;;5075070;28;20107;-70
2023/03/02 08:48:51;;;;;;;68.00;35.00;;;;;;;;;;5073078;28;20372;-71
2023/03/02 08:51:36;;;;;;;73.47;35.95;;;;;;;;;;5073731;28;20017;-71
2023/03/02 08:54:22;;;;;;;81.60;41.25;;;;;;;;;;5074341;28;20075;-71
2023/03/02 08:57:11;;;;;;;66.35;35.80;;;;;;;;;;5074486;28;20028;-71
2023/03/02 08:59:56;;;;;;;62.13;33.13;;;;;;;;;;5072668;28;20153;-71
2023/03/02 09:02:42;;;;;;;70.28;36.42;;;;;;;;;;5074007;28;20107;-71
2023/03/02 09:05:27;;;;;;;69.63;35.80;;;;;;;;;;5073949;28;20413;-71
2023/03/02 09:08:13;;;;;;;68.85;34.90;;;;;;;;;;5073500;28;20021;-69
2023/03/02 09:10:58;;;;;;;73.30;35.72;;;;;;;;;;5073734;28;20025;-71
2023/03/02 09:13:44;;;;;;;89.97;42.90;;;;;;;;;;5074222;28;20063;-71
2023/03/02 09:16:30;;;;;;;86.78;43.45;;;;;;;;;;5073515;28;20513;-71
2023/03/02 09:19:16;;;;;;;87.25;43.08;;;;;;;;;;5073770;28;20044;-71
2023/03/02 09:22:01;;;;;;;83.72;42.22;;;;;;;;;;5073213;28;20026;-71
2023/03/02 09:24:47;;;;;;;86.72;40.17;;;;;;;;;;5072965;28;20031;-71
2023/03/02 09:27:32;;;;;;;70.47;35.63;;;;;;;;;;5074498;28;20485;-72
2023/03/02 09:30:18;;;;;;;75.63;37.35;;;;;;;;;;5072841;28;20031;-71
2023/03/02 09:33:04;;;;;;;73.22;38.40;;;;;;;;;;5074144;28;20040;-71
2023/03/02 09:35:49;;;;;;;71.45;37.90;;;;;;;;;;5074961;28;20085;-71
2023/03/02 09:38:35;;;;;;;74.38;37.67;;;;;;;;;;5073672;28;20030;-71
2023/03/02 09:41:28;;;;;;;72.18;38.25;;;;;;;;;;5072842;28;20036;-71
2023/03/02 09:44:40;;;;;;;68.72;36.67;;;;;;;;;;5073039;28;20021;-72
2023/03/02 09:47:25;;;;;;;74.80;38.60;;;;;;;;;;5074657;28;20056;-70
2023/03/02 09:50:30;;;;;;;68.00;35.50;;;;;;;;;;5073500;28;20027;-70
2023/03/02 09:53:24;;;;;;;66.65;36.25;;;;;;;;;;5074340;28;20032;-70
2023/03/02 09:56:15;;;;;;;73.63;35.53;;;;;;;;;;5073111;28;20024;-70
2023/03/02 09:59:20;;;;;;;67.00;35.55;;;;;;;;;;5073913;28;20452;-71
2023/03/02 10:02:05;;;;;;;65.35;34.83;;;;;;;;;;5075807;28;20578;-71
2023/03/02 10:04:55;;;;;;;62.75;34.25;;;;;;;;;;5078694;28;20020;-71
2023/03/02 10:07:41;;;;;;;64.80;34.30;;;;;;;;;;5077220;28;20078;-71
2023/03/02 10:10:39;;;;;;;63.70;32.95;;;;;;;;;;5078221;28;20089;-70
2023/03/02 10:13:24;;;;;;;61.65;33.60;;;;;;;;;;5076880;28;20020;-70
2023/03/02 10:16:25;;;;;;;62.83;33.63;;;;;;;;;;5076847;28;20036;-71
2023/03/02 10:19:41;;;;;;;60.42;33.58;;;;;;;;;;5077649;28;20025;-72
2023/03/02 10:22:28;;;;;;;62.25;33.65;;;;;;;;;;5076309;28;20465;-71
2023/03/02 10:25:26;;;;;;;58.88;32.15;;;;;;;;;;5079170;28;20035;-71
2023/03/02 10:28:19;;;;;;;57.28;31.25;;;;;;;;;;5076237;28;20024;-70
2023/03/02 10:31:11;;;;;;;57.90;31.95;;;;;;;;;;5076607;28;20029;-71
2023/03/02 10:33:57;;;;;;;57.65;31.20;;;;;;;;;;5076732;28;20041;-71
2023/03/02 10:36:43;;;;;;;56.75;31.40;;;;;;;;;;5076037;28;20445;-71
2023/03/02 10:39:29;;;;;;;62.92;34.30;;;;;;;;;;5076069;28;20145;-71
2023/03/02 10:42:17;;;;;;;54.75;30.95;;;;;;;;;;5077409;28;20028;-69
2023/03/02 10:45:15;;;;;;;55.33;30.00;;;;;;;;;;5078071;28;20361;-71
2023/03/02 10:48:00;;;;;;;54.03;29.92;;;;;;;;;;5076121;28;20086;-71
2023/03/02 10:50:52;;;;;;;53.45;28.92;;;;;;;;;;5076827;28;20111;-70
2023/03/02 10:53:37;;;;;;;52.05;28.65;;;;;;;;;;5076214;28;20032;-71
2023/03/02 10:56:23;;;;;;;55.90;29.63;;;;;;;;;;5076290;28;20082;-71
2023/03/02 10:59:26;;;;;;;54.30;28.63;;;;;;;;;;5076523;28;20024;-72
2023/03/02 11:02:11;;;;;;;56.65;29.20;;;;;;;;;;5076303;28;20028;-70
2023/03/02 11:05:17;;;;;;;51.22;29.98;;;;;;;;;;5077010;28;20031;-71
2023/03/02 11:08:10;;;;;;;53.28;29.58;;;;;;;;;;5076797;28;20017;-70
2023/03/02 11:10:57;;;;;;;55.05;29.45;;;;;;;;;;5076411;28;20030;-71
2023/03/02 11:13:43;;;;;;;48.72;29.10;;;;;;;;;;5075318;28;20051;-72
2023/03/02 11:16:30;;;;;;;50.10;27.40;;;;;;;;;;5076774;28;20419;-71
2023/03/02 11:19:18;;;;;;;50.38;27.20;;;;;;;;;;5076732;28;20028;-71
2023/03/02 11:22:27;;;;;;;45.50;26.38;;;;;;;;;;5075947;28;20381;-72
2023/03/02 11:25:18;;;;;;;47.72;27.38;;;;;;;;;;5075875;28;20020;-72
2023/03/02 11:28:08;;;;;;;51.47;28.10;;;;;;;;;;5075602;28;20032;-71
2023/03/02 11:30:56;;;;;;;52.45;27.73;;;;;;;;;;5076711;28;20013;-71
2023/03/02 11:33:45;;;;;;;50.15;27.05;;;;;;;;;;5074800;28;20105;-71
2023/03/02 11:36:57;;;;;;;49.63;26.58;;;;;;;;;;5075471;28;20024;-71
2023/03/02 11:39:48;;;;;;;43.55;25.65;;;;;;;;;;5061351;28;20044;-71
2023/03/02 11:42:39;;;;;;;44.28;25.90;;;;;;;;;;5075341;28;20024;-71
2023/03/02 11:45:33;;;;;;;42.45;24.48;;;;;;;;;;5075651;28;20031;-72
2023/03/02 11:48:34;;;;;;;42.85;24.15;;;;;;;;;;5075108;28;20025;-71
2023/03/02 11:51:21;;;;;;;47.80;25.27;;;;;;;;;;5075274;28;20045;-71
2023/03/02 11:54:18;;;;;;;42.78;23.38;;;;;;;;;;5074974;28;20059;-71
2023/03/02 11:57:03;;;;;;;43.33;23.50;;;;;;;;;;5076211;28;20383;-70
2023/03/02 11:59:50;;;;;;;45.90;24.33;;;;;;;;;;5075540;28;20028;-71
2023/03/02 12:02:35;;;;;;;45.03;24.48;;;;;;;;;;5074603;28;20124;-69
2023/03/02 12:05:23;;;;;;;40.63;23.17;;;;;;;;;;5075225;28;20028;-70
2023/03/02 12:08:18;;;;;;;43.65;23.05;;;;;;;;;;5075772;28;20024;-71
2023/03/02 12:11:26;;;;;;;43.90;24.63;;;;;;;;;;5076792;28;20017;-70
2023/03/02 12:14:34;;;;;;;39.70;22.80;;;;;;;;;;5076650;28;20028;-70
2023/03/02 12:17:25;;;;;;;39.42;22.45;;;;;;;;;;5075472;28;20025;-71
2023/03/02 12:20:22;;;;;;;38.95;22.35;;;;;;;;;;5076079;28;20052;-71
2023/03/02 12:23:19;;;;;;;36.00;21.42;;;;;;;;;;5074416;28;20028;-72
2023/03/02 12:26:23;;;;;;;41.50;22.40;;;;;;;;;;5074948;28;20494;-71
2023/03/02 12:29:09;;;;;;;39.30;22.65;;;;;;;;;;5074696;28;20012;-72
2023/03/02 12:31:55;;;;;;;38.35;21.88;;;;;;;;;;5074057;28;20041;-71
2023/03/02 12:34:43;;;;;;;36.25;21.63;;;;;;;;;;5074654;28;20086;-70
2023/03/02 12:37:30;;;;;;;36.25;21.80;;;;;;;;;;5074429;28;20086;-70
2023/03/02 12:40:22;;;;;;;40.15;23.35;;;;;;;;;;5074685;28;20111;-70
2023/03/02 12:43:07;;;;;;;38.17;22.42;;;;;;;;;;5074141;28;20369;-71
2023/03/02 12:45:56;;;;;;;37.55;20.92;;;;;;;;;;5074004;28;20036;-71
2023/03/02 12:48:47;;;;;;;35.15;20.40;;;;;;;;;;5074181;28;20130;-71
2023/03/02 12:51:42;;;;;;;36.75;21.77;;;;;;;;;;5073474;28;20099;-71
2023/03/02 12:54:32;;;;;;;37.22;22.25;;;;;;;;;;5074180;28;20059;-71
2023/03/02 12:57:19;;;;;;;41.75;21.55;;;;;;;;;;5074190;28;20098;-72
2023/03/02 13:00:12;;;;;;;38.97;21.85;;;;;;;;;;5074432;28;20107;-70
2023/03/02 13:02:58;;;;;;;34.70;20.65;;;;;;;;;;5074843;28;20016;-70
2023/03/02 13:05:46;;;;;;;39.67;21.58;;;;;;;;;;5073371;28;20035;-71
2023/03/02 13:08:31;;;;;;;37.13;20.73;;;;;;;;;;5052299;28;20017;-71
2023/03/02 13:11:36;;;;;;;35.63;20.50;;;;;;;;;;5055615;28;20021;-70
2023/03/02 13:14:24;;;;;;;40.42;21.55;;;;;;;;;;5058146;28;20039;-71
2023/03/02 13:17:20;;;;;;;33.72;20.02;;;;;;;;;;5056227;28;20108;-71
2023/03/02 13:20:05;;;;;;;35.63;20.38;;;;;;;;;;5054988;28;20032;-70
2023/03/02 13:22:51;;;;;;;38.38;20.75;;;;;;;;;;5054146;28;20504;-71
2023/03/02 13:25:37;;;;;;;33.03;19.95;;;;;;;;;;5054139;28;20029;-71
2023/03/02 13:28:29;;;;;;;34.63;19.58;;;;;;;;;;5054900;28;20052;-71
2023/03/02 13:31:22;;;;;;;35.05;19.50;;;;;;;;;;5054200;28;20021;-71
2023/03/02 13:34:29;;;;;;;36.85;20.17;;;;;;;;;;5058102;28;20392;-74
2023/03/02 13:37:20;;;;;;;35.67;19.75;;;;;;;;;;5055049;28;20033;-72
2023/03/02 13:40:25;;;;;;;39.65;22.65;;;;;;;;;;5054985;28;20047;-70
2023/03/02 13:43:29;;;;;;;32.97;19.27;;;;;;;;;;5054052;28;20048;-69
2023/03/02 13:46:14;;;;;;;33.60;19.77;;;;;;;;;;5053376;28;20021;-71
2023/03/02 13:49:04;;;;;;;35.42;20.98;;;;;;;;;;5053576;28;20074;-70
2023/03/02 13:51:55;;;;;;;39.67;20.30;;;;;;;;;;5054170;28;20021;-71
2023/03/02 13:54:43;;;;;;;36.38;21.00;;;;;;;;;;5053479;28;20112;-71
2023/03/02 13:57:30;;;;;;;36.63;20.40;;;;;;;;;;5053812;28;20031;-70
2023/03/02 14:00:19;;;;;;;36.38;20.40;;;;;;;;;;5054005;28;20035;-70
2023/03/02 14:03:09;;;;;;;35.97;20.67;;;;;;;;;;5053743;28;20038;-71
2023/03/02 14:05:55;;;;;;;35.83;19.45;;;;;;;;;;5053587;28;20024;-70
2023/03/02 14:08:41;;;;;;;35.25;19.63;;;;;;;;;;5053366;28;20040;-70
2023/03/02 14:11:31;;;;;;;34.05;19.75;;;;;;;;;;5053326;28;20036;-71
2023/03/02 14:14:22;;;;;;;34.80;20.13;;;;;;;;;;5053685;28;20024;-70
2023/03/02 14:17:15;;;;;;;32.90;19.75;;;;;;;;;;5052941;28;20039;-70
2023/03/02 14:20:01;;;;;;;35.70;18.90;;;;;;;;;;5054176;28;20091;-70
2023/03/02 14:22:46;;;;;;;29.98;18.75;;;;;;;;;;5053138;28;20021;-71
2023/03/02 14:25:32;;;;;;;33.35;19.27;;;;;;;;;;5053736;28;20024;-71
2023/03/02 14:28:22;;;;;;;38.42;20.35;;;;;;;;;;5053270;28;20025;-70
2023/03/02 14:31:07;;;;;;;29.90;18.50;;;;;;;;;;5053048;28;20025;-71
2023/03/02 14:33:53;;;;;;;35.55;19.70;;;;;;;;;;5052795;28;20465;-71
2023/03/02 14:36:39;;;;;;;32.78;19.52;;;;;;;;;;5053262;28;20035;-70
2023/03/02 14:39:28;;;;;;;30.27;19.02;;;;;;;;;;5053515;28;20029;-70
2023/03/02 14:42:15;;;;;;;33.17;19.85;;;;;;;;;;5053541;28;20053;-70
2023/03/02 14:45:00;;;;;;;35.85;19.38;;;;;;;;;;5053681;28;20025;-69
2023/03/02 14:47:47;;;;;;;42.13;21.02;;;;;;;;;;5055321;28;20025;-70
2023/03/02 14:50:35;;;;;;;37.55;20.63;;;;;;;;;;5057894;28;20017;-71
2023/03/02 14:53:27;;;;;;;35.60;20.10;;;;;;;;;;5057105;28;20107;-74
2023/03/02 14:56:13;;;;;;;39.55;21.70;;;;;;;;;;5056621;28;20510;-71
2023/03/02 14:58:58;;;;;;;37.22;21.13;;;;;;;;;;5056767;28;20032;-71
2023/03/02 15:01:44;;;;;;;39.33;21.15;;;;;;;;;;5055969;28;20032;-70
2023/03/02 15:04:29;;;;;;;33.45;19.88;;;;;;;;;;5056694;28;20464;-71
2023/03/02 15:07:15;;;;;;;43.88;22.60;;;;;;;;;;5057628;28;20090;-70
2023/03/02 15:10:01;;;;;;;36.97;20.17;;;;;;;;;;5057229;28;20025;-70
2023/03/02 15:12:46;;;;;;;35.95;20.35;;;;;;;;;;5056492;28;20024;-70
2023/03/02 15:15:32;;;;;;;42.42;21.10;;;;;;;;;;5056922;28;20049;-70
2023/03/02 15:18:18;;;;;;;40.40;21.42;;;;;;;;;;5056054;28;20025;-70
2023/03/02 15:21:04;;;;;;;39.53;21.83;;;;;;;;;;5056469;28;20368;-71
2023/03/02 15:23:50;;;;;;;38.33;21.75;;;;;;;;;;5057108;28;20025;-70
2023/03/02 15:26:35;;;;;;;36.53;21.15;;;;;;;;;;5056946;28;20227;-71
2023/03/02 15:29:21;;;;;;;41.28;22.08;;;;;;;;;;5056210;28;20013;-69
2023/03/02 15:32:06;;;;;;;41.75;21.73;;;;;;;;;;5055611;28;20381;-70
2023/03/02 15:34:52;;;;;;;39.35;22.65;;;;;;;;;;5055253;28;20087;-71
2023/03/02 15:37:38;;;;;;;40.65;21.95;;;;;;;;;;5042185;28;20099;-71
2023/03/02 15:40:24;;;;;;;36.40;22.27;;;;;;;;;;5055569;28;20021;-71
2023/03/02 15:43:12;;;;;;;43.67;22.30;;;;;;;;;;5055850;28;20445;-70
2023/03/02 15:45:57;;;;;;;41.42;22.92;;;;;;;;;;5055824;28;20110;-73
2023/03/02 15:48:43;;;;;;;42.28;23.17;;;;;;;;;;5055978;28;20040;-70
2023/03/02 15:51:28;;;;;;;46.33;23.65;;;;;;;;;;5055424;28;20454;-71
2023/03/02 15:54:14;;;;;;;43.65;25.02;;;;;;;;;;5055622;28;20059;-70
2023/03/02 15:57:00;;;;;;;43.03;24.10;;;;;;;;;;5054841;28;20024;-70
2023/03/02 15:59:45;;;;;;;89.07;48.10;;;;;;;;;;5055743;28;20043;-71
2023/03/02 16:02:31;;;;;;;50.95;29.27;;;;;;;;;;5055072;28;20024;-71
2023/03/02 16:05:16;;;;;;;46.03;26.33;;;;;;;;;;5055889;28;20024;-70
2023/03/02 16:08:02;;;;;;;45.15;23.05;;;;;;;;;;5055075;28;20021;-70
2023/03/02 16:10:58;;;;;;;40.13;23.35;;;;;;;;;;5054647;28;20119;-71
2023/03/02 16:13:43;;;;;;;41.38;23.38;;;;;;;;;;5055278;28;20036;-70
2023/03/02 16:16:29;;;;;;;49.70;24.33;;;;;;;;;;5054983;28;20108;-71